x

Monterey - 27nm Wnw Of Monterey, Ca (46042) Wave Buoy

7:50am - Mon 27th Apr 2015 All times are PDT. -7 hours from GMT.

  • Sig Wave height 5.6ft
  • Swell Direction
  • Peak Period 7s
  • Average Period 6s
  • Wind
    9mph, 11mph gusts
  • Sea Temp 53°f
  • Air Temp 53°f
  • Sea Pressure 1017.4mb
  • Monterey - 27nm Wnw Of Monterey, Ca
  • Monterey - 27nm Wnw Of Monterey, Ca

More Historic Weather Station data

Upgrade to MSW Pro to gain access to the past 30 days of data for over 8000 Wavebouys and Weather Stations around the globe.

Join Pro

Comparision Forecast

View Surf forecast
   
Mon 04/27 7:50am 5.5ft 7s 6s 9 11 mph 1017.4mb 53f 53f
6:50am 6ft 7s 6s 11 13 mph 1017.1mb 53f 53f
5:50am 6ft 7s 6s 16 18 mph 1016.6mb 53f 53f
4:50am 6ft 7s 6s 18 22 mph 1016.8mb 53f 53f
3:50am 6ft 7s 6s 16 20 mph 1017.2mb 53f 53f
2:50am 7ft 7s 6s 20 22 mph 1017.2mb 53f 53f
1:50am 6.5ft 6s 6s 18 22 mph 1017.7mb 53f 53f
12:50am 6ft 9s 6s 16 20 mph 1018.6mb 53f 54f
Sun 04/26 11:50pm 6ft 6s 6s 20 25 mph 1018.6mb 53f 54f
10:50pm 6ft 6s 6s 18 22 mph 1019.3mb 53f 54f
9:50pm 5.5ft 10s 6s 18 20 mph 1019.7mb 53f 54f
8:50pm 6ft 10s 5s 20 25 mph 1019.3mb 54f 54f
7:50pm 5.5ft 10s 5s 22 27 mph 1018.9mb 54f 54f
6:50pm 6ft 10s 6s 22 27 mph 1019.1mb 54f 54f
5:50pm 6ft 11s 5s 22 27 mph 1019.4mb 54f 54f
4:50pm 6.5ft 11s 6s 20 25 mph 1020.1mb 54f 54f
3:50pm 5.5ft 11s 6s 20 22 mph 1020.7mb 53f 54f
2:50pm 6.5ft 11s 6s 18 22 mph 1021.1mb 53f 54f
1:50pm 6ft 11s 6s 20 25 mph 1021.3mb 53f 54f
12:50pm 6ft 10s 6s 20 27 mph 1021.6mb 53f 53f
11:50am 6ft 10s 6s 20 22 mph 1022mb 53f 53f
10:50am 6.5ft 11s 6s 18 22 mph 1022.2mb 53f 53f
9:50am 6.5ft 11s 6s 16 20 mph 1021.7mb 53f 53f
8:50am 7ft 11s 6s 13 18 mph 1021.3mb 53f 53f
7:50am 7.5ft 11s 7s 18 22 mph 1020.5mb 53f 53f
6:50am 7.5ft 7s 6s 18 22 mph 1020mb 53f 53f
5:50am 8ft 11s 7s 22 27 mph 1019.3mb 53f 53f
4:50am 7.5ft 7s 6s 20 25 mph 1019.2mb 53f 53f
3:50am 9ft 10s 7s 20 25 mph 1019.1mb 53f 53f
2:50am 8.5ft 12s 7s 20 22 mph 1019.4mb 53f 53f
1:50am 8.5ft 12s 7s 22 25 mph 1019.4mb 53f 53f
12:50am 9ft 11s 7s 20 25 mph 1019.6mb 53f 53f
Sat 04/25 11:50pm 9ft 12s 7s 20 25 mph 1019.6mb 53f 53f
10:50pm 9ft 12s 7s 20 25 mph 1019.5mb 53f 54f
9:50pm 9ft 11s 8s 20 25 mph 1019.3mb 53f 54f
8:50pm 8ft 12s 7s 16 22 mph 1019.1mb 53f 53f
7:50pm 8ft 13s 7s 18 20 mph 1018.4mb 53f 53f
6:50pm 8ft 13s 7s 20 25 mph 1017.8mb 54f 53f
5:50pm 8.5ft 13s 8s 20 25 mph 1017.5mb 54f 54f
4:50pm 8ft 13s 7s 20 25 mph 1017.4mb 54f 54f
3:50pm 8.5ft 14s 8s 20 22 mph 1017mb 54f 53f
2:50pm 8ft 14s 7s 18 22 mph 1017.3mb 54f 53f
1:50pm 8ft 14s 7s 16 20 mph 1017.2mb 54f 53f
12:50pm 8ft 14s 7s 18 20 mph 1017mb 53f 53f
11:50am 9ft 12s 7s 18 22 mph 1017.1mb 53f 53f
10:50am 8ft 15s 7s 20 22 mph 1016.6mb 53f 52f
9:50am 9ft 14s 7s 20 25 mph 1015.9mb 53f 51f
8:50am 8.5ft 11s 8s 18 22 mph 1015.3mb 53f 54f
7:50am 8ft 14s 8s 18 25 mph 1014.7mb 53f 54f
6:50am 8ft 14s 8s 13 16 mph 1014.4mb 53f 54f
5:50am 8ft 15s 7s 18 22 mph 1014mb 54f 55f
4:50am 9ft 15s 8s 20 29 mph 1013.6mb 54f 55f
3:50am 8ft 15s 8s 22 27 mph 1013.7mb 54f 55f
2:50am 7ft 16s 8s 18 20 mph 1014.5mb 54f 55f
1:50am 7ft 16s 9s 16 18 mph 1015.6mb 54f 55f
12:50am 7ft 16s 9s 13
mph
1016.3mb 55f 55f
Fri 04/24 11:50pm 6.5ft 11s 9s 9 11 mph 1017mb 55f 55f
10:50pm 6.5ft 16s 8s 9 11 mph 1017.6mb 55f 54f
9:50pm 6ft 11s 8s 4 7 mph 1018.2mb 55f 54f
8:50pm 6ft 11s 8s 2 4 mph 1018.3mb 55f 54f
7:50pm 6ft 10s 8s 4 7 mph 1018.1mb 55f 55f
6:50pm 6ft 11s 7s 7 9 mph 1018mb 55f 55f
5:50pm 5.5ft 11s 7s 9
mph
1018mb 55f 55f
4:50pm 5.5ft 7s 7s 9
mph
1017.7mb 55f 55f
3:50pm 5.5ft 10s 7s 11 13 mph 1018.1mb 55f 54f
2:50pm 5.5ft 7s 6s 11 13 mph 1018.4mb 54f 54f
1:50pm 5.5ft 8s 6s 13 16 mph 1018.4mb 54f 54f
12:50pm 5.5ft 10s 7s 13 18 mph 1018.6mb 54f 54f
11:50am 6ft 10s 7s 11 16 mph 1018.6mb 54f 53f
10:50am 5.5ft 8s 7s 11 13 mph 1018.1mb 53f 53f
9:50am 6ft 8s 6s 9 11 mph 1017.8mb 53f 53f
8:50am 6ft 10s 7s 13 18 mph 1017.4mb 53f 53f
7:50am 6ft 8s 6s 13 16 mph 1016.7mb 53f 53f
6:50am 6.5ft 8s 7s 16 20 mph 1015.9mb 53f 54f
5:50am 7ft 8s 7s 16 20 mph 1015.1mb 53f 54f
4:50am 8ft 9s 7s 11 13 mph 1015mb 53f 54f
3:50am 9ft 9s 7s 11 16 mph 1014.9mb 53f 54f
2:50am 9ft 9s 7s 7 9 mph 1014.8mb 53f 54f
1:50am 10ft 9s 7s 13 16 mph 1014.9mb 53f 54f
12:50am 10ft 10s 7s 18 20 mph 1014.5mb 53f 54f
Thu 04/23 11:50pm 11ft 9s 8s 18 20 mph 1014.7mb 53f 53f
10:50pm 10ft 9s 8s 16 18 mph 1014.7mb 53f 53f
9:50pm 10.5ft 10s 8s 13 18 mph 1014.2mb 53f 53f
8:50pm 11ft 10s 8s 13 18 mph 1013.9mb 53f 53f
7:50pm 11ft 11s 8s 13 18 mph 1013.6mb 53f 53f
6:50pm 11ft 10s 7s 18 22 mph 1013.3mb 53f 53f
5:50pm 12ft 10s 8s 20 27 mph 1013.3mb 53f 52f
4:50pm 11.5ft 11s 8s 20 25 mph 1013.2mb 53f 52f
3:50pm 11ft 11s 8s 16 20 mph 1013.5mb 53f 52f